Time;durP1;ratioP1;P1;durP2;ratioP2;P2;SDS_P1;SDS_P2;PMS_P1;PMS_P2;Temp;Humidity;BMP_temperature;BMP_pressure;BME280_temperature;BME280_humidity;BME280_pressure;Samples;Min_cycle;Max_cycle;Signal;HPM_P1;HPM_P2
2023/03/07 06:00:42;;;;;;;;;14.00;11.00;;;;;8.71;54.84;64480.03;5853504;23;46567;-90
2023/03/07 06:03:07;;;;;;;;;11.67;11.67;;;;;8.82;54.91;64466.06;4992491;28;45570;-90
2023/03/07 06:05:32;;;;;;;;;14.00;14.00;;;;;8.93;54.53;64567.97;4994656;28;45352;-90
2023/03/07 06:07:58;;;;;;;;;17.00;14.00;;;;;7.82;54.52;64351.34;4995126;28;45341;-90
2023/03/07 06:10:24;;;;;;;;;10.67;10.67;;;;;8.67;54.75;64470.84;4990744;28;46350;-89
2023/03/07 06:12:51;;;;;;;;;13.00;13.00;;;;;8.92;54.78;64366.66;4991289;28;45656;-91
2023/03/07 06:15:17;;;;;;;;;15.33;10.33;;;;;8.93;54.24;64356.69;4988054;28;45635;-91
2023/03/07 06:17:58;;;;;;;;;;;;;;;;;;;;;
2023/03/07 06:20:24;;;;;;;;;13.67;11.67;;;;;8.20;54.99;64327.63;4991531;28;76026;-90
2023/03/07 06:22:49;;;;;;;;;15.67;15.67;;;;;7.92;54.62;64257.34;4992707;28;45440;-91
2023/03/07 06:25:15;;;;;;;;;12.00;9.00;;;;;8.65;54.94;64323.78;4980066;28;45398;-90
2023/03/07 06:27:41;;;;;;;;;19.67;14.00;;;;;8.83;54.78;64365.03;4992779;28;45294;-89
2023/03/07 06:30:08;;;;;;;;;15.67;12.67;;;;;9.09;55.13;64288.22;4980027;28;46965;-89
2023/03/07 06:32:33;;;;;;;;;12.00;10.67;;;;;8.70;54.43;64266.19;4980786;28;45394;-90
2023/03/07 06:34:59;;;;;;;;;12.67;12.00;;;;;8.37;54.66;64256.09;4995710;28;45472;-91
2023/03/07 06:37:24;;;;;;;;;14.33;13.00;;;;;7.48;54.47;64182.91;4997905;28;45594;-90
2023/03/07 06:42:51;;;;;;;;;11.33;10.00;;;;;8.68;54.59;64258.66;5052932;23;45451;-93
2023/03/07 06:45:16;;;;;;;;;12.67;12.00;;;;;8.61;54.79;64301.41;5000193;28;45339;-91
2023/03/07 06:47:42;;;;;;;;;15.00;13.67;;;;;8.54;54.63;64251.44;5001251;28;45400;-91
2023/03/07 06:50:08;;;;;;;;;12.00;11.00;;;;;9.05;54.88;64299.56;5001277;28;46957;-91
2023/03/07 06:52:33;;;;;;;;;13.33;10.00;;;;;8.46;55.01;64192.50;5008064;28;45527;-93
2023/03/07 06:54:59;;;;;;;;;15.00;13.00;;;;;8.71;54.96;64269.38;5004290;28;45379;-93
2023/03/07 06:57:25;;;;;;;;;16.67;16.67;;;;;8.84;55.07;64239.72;4999983;28;45638;-92
2023/03/07 06:59:50;;;;;;;;;13.33;8.33;;;;;9.12;54.83;64142.91;5002446;28;48524;-92
2023/03/07 07:02:16;;;;;;;;;18.00;16.67;;;;;8.81;54.60;64109.41;4998527;28;45383;-92
2023/03/07 07:04:41;;;;;;;;;17.67;14.00;;;;;8.72;54.33;64165.72;4999408;28;45400;-93
2023/03/07 07:07:06;;;;;;;;;16.33;13.00;;;;;9.20;54.79;64073.38;5003429;28;45549;-92
2023/03/07 07:09:33;;;;;;;;;18.00;16.33;;;;;8.28;55.00;63977.63;5000659;28;47259;-92
2023/03/07 07:11:58;;;;;;;;;16.00;13.33;;;;;9.04;54.54;64077.16;5007972;28;45897;-92
2023/03/07 07:14:24;;;;;;;;;17.00;15.33;;;;;9.16;54.82;64016.22;4998591;28;45578;-91
2023/03/07 07:16:49;;;;;;;;;13.33;12.67;;;;;8.91;54.46;64004.69;4999771;28;45466;-91
2023/03/07 07:19:15;;;;;;;;;17.00;14.33;;;;;9.28;54.84;64071.75;4999379;28;48048;-92
2023/03/07 07:21:40;;;;;;;;;19.67;14.67;;;;;9.27;54.22;64125.41;4999729;28;45669;-92
2023/03/07 07:24:06;;;;;;;;;12.67;11.00;;;;;8.87;54.87;64058.72;4998971;28;45608;-91
2023/03/07 07:26:31;;;;;;;;;13.33;12.00;;;;;9.26;54.63;64085.31;5015435;28;45401;-91
2023/03/07 07:28:56;;;;;;;;;20.33;15.00;;;;;8.91;54.71;64160.06;4995810;28;47352;-91
2023/03/07 07:31:22;;;;;;;;;19.00;15.33;;;;;8.84;54.93;63994.78;5012918;28;45402;-90
2023/03/07 07:33:47;;;;;;;;;11.00;11.00;;;;;8.59;54.29;64027.47;4993902;28;45554;-91
2023/03/07 07:36:12;;;;;;;;;16.67;13.00;;;;;9.17;54.42;64016.75;5014914;28;45426;-91
2023/03/07 07:38:38;;;;;;;;;12.00;10.67;;;;;8.32;54.42;63995.81;4999301;28;47807;-90
2023/03/07 07:41:03;;;;;;;;;19.00;15.00;;;;;8.86;54.58;63968.06;5017361;28;45369;-91
2023/03/07 07:43:29;;;;;;;;;16.00;14.33;;;;;9.36;54.76;63940.41;5000417;28;45415;-91
2023/03/07 07:45:54;;;;;;;;;14.67;13.00;;;;;8.58;54.82;63831.56;5017517;28;45629;-90
2023/03/07 07:48:20;;;;;;;;;13.33;11.67;;;;;9.43;55.04;63882.31;5020125;28;46399;-92
2023/03/07 07:50:45;;;;;;;;;13.33;10.33;;;;;8.60;54.71;63718.53;4999457;28;45482;-92
2023/03/07 07:53:11;;;;;;;;;11.67;9.00;;;;;8.93;54.19;63814.09;4995655;28;45566;-93
2023/03/07 07:55:39;;;;;;;;;16.33;12.67;;;;;8.73;54.61;63735.03;5002033;28;46437;-96
2023/03/07 07:58:05;;;;;;;;;12.00;10.33;;;;;8.23;54.25;63717.97;4997858;28;48242;-94
2023/03/07 08:01:05;;;;;;;;;;;;;;;;;;;;;
2023/03/07 08:03:31;;;;;;;;;15.33;11.33;;;;;8.32;54.25;63761.09;5408453;23;68757;-93
2023/03/07 08:11:35;;;;;;;;;12.67;11.00;;;;;8.82;54.27;63805.03;5049972;22;71793;-93
2023/03/07 08:16:40;;;;;;;;;18.33;11.67;;;;;7.98;54.21;63753.88;5023988;23;58149;-92
2023/03/07 08:19:11;;;;;;;;;17.67;14.33;;;;;7.53;53.82;63628.75;4979656;28;47233;-92
2023/03/07 08:32:13;;;;;;;;;11.33;11.33;;;;;7.65;54.08;63625.75;5002668;23;45371;-96
2023/03/07 08:34:45;;;;;;;;;13.00;12.00;;;;;7.59;53.75;63734.75;5014083;28;45467;-96
2023/03/07 08:37:10;;;;;;;;;14.33;12.67;;;;;7.78;53.88;63647.53;5014127;28;45826;-95
2023/03/07 08:40:05;;;;;;;;;13.33;11.00;;;;;7.53;53.74;63789.06;4992410;28;47124;-95
2023/03/07 08:42:36;;;;;;;;;11.00;9.00;;;;;8.89;53.76;63799.66;5004870;28;45591;-95
2023/03/07 08:45:14;;;;;;;;;34.33;31.67;;;;;8.67;53.73;63731.00;5010751;28;46664;-96
2023/03/07 08:50:26;;;;;;;;;12.33;10.33;;;;;9.62;53.54;63879.19;5033948;22;74392;-94
2023/03/07 08:52:52;;;;;;;;;13.33;10.67;;;;;8.75;54.07;63699.84;4992493;28;45501;-95
2023/03/07 08:55:17;;;;;;;;;12.67;11.67;;;;;9.00;53.90;63627.50;4995112;28;48061;-93
2023/03/07 08:57:46;;;;;;;;;12.00;11.00;;;;;9.42;53.92;63743.59;4993290;28;48083;-91
2023/03/07 09:00:13;;;;;;;;;12.00;10.67;;;;;9.88;54.06;63732.91;4998805;28;47245;-90
2023/03/07 09:02:40;;;;;;;;;11.33;9.00;;;;;9.91;54.32;63496.75;4992505;28;45403;-92
2023/03/07 09:05:05;;;;;;;;;10.67;10.67;;;;;9.96;53.51;63567.69;5009856;28;45419;-89
2023/03/07 09:07:31;;;;;;;;;10.33;10.33;;;;;9.27;53.79;63435.00;5006407;28;45860;-91
2023/03/07 09:09:56;;;;;;;;;14.00;11.33;;;;;9.56;53.34;63442.25;5008521;28;45655;-90
2023/03/07 09:12:22;;;;;;;;;10.00;8.00;;;;;10.12;53.53;63632.34;5010913;28;46072;-91
2023/03/07 09:14:47;;;;;;;;;13.00;11.00;;;;;10.14;53.36;63614.00;4994313;28;45534;-90
2023/03/07 09:17:13;;;;;;;;;11.00;10.67;;;;;10.12;53.21;63685.69;5008955;28;45470;-89
2023/03/07 09:19:39;;;;;;;;;12.00;10.00;;;;;9.47;53.13;63710.16;5010028;28;46343;-92
2023/03/07 09:22:04;;;;;;;;;14.00;12.00;;;;;9.46;52.94;63656.34;5008723;28;47226;-89
2023/03/07 09:24:30;;;;;;;;;15.33;9.00;;;;;9.32;53.36;63574.38;5010017;28;45496;-89
2023/03/07 09:26:55;;;;;;;;;11.00;10.67;;;;;9.25;52.89;63562.47;5008187;28;45533;-92
2023/03/07 09:29:21;;;;;;;;;11.33;8.33;;;;;9.90;52.93;63576.88;4996251;28;47312;-91
2023/03/07 09:31:46;;;;;;;;;13.00;10.00;;;;;9.42;52.90;63404.16;5013666;28;45731;-89
2023/03/07 09:34:12;;;;;;;;;12.00;12.00;;;;;9.67;52.66;63391.13;5009700;28;45542;-89
2023/03/07 09:36:37;;;;;;;;;11.33;9.00;;;;;10.56;52.77;63442.94;5008854;28;45517;-88
2023/03/07 09:39:04;;;;;;;;;15.00;9.67;;;;;10.42;52.19;63585.88;5008155;28;45935;-91
2023/03/07 09:41:32;;;;;;;;;11.67;10.67;;;;;10.67;52.39;63633.56;4989669;28;45446;-90
2023/03/07 09:44:30;;;;;;;;;14.33;11.00;;;;;10.72;52.11;63636.47;5003967;28;45537;-90
2023/03/07 09:47:19;;;;;;;;;12.00;11.00;;;;;10.61;51.88;63532.41;5013665;28;45372;-89
2023/03/07 09:49:52;;;;;;;;;13.33;10.67;;;;;10.38;51.55;63747.19;4984933;28;47125;-94
2023/03/07 09:52:27;;;;;;;;;13.00;13.00;;;;;10.91;51.50;63583.53;5005832;28;45781;-93
2023/03/07 09:55:00;;;;;;;;;11.00;9.00;;;;;10.39;51.56;63622.13;4994966;28;45707;-92
2023/03/07 09:57:30;;;;;;;;;7.00;5.00;;;;;9.89;51.07;63523.56;5000374;28;45779;-92
2023/03/07 10:00:02;;;;;;;;;12.33;12.00;;;;;10.76;50.78;63694.28;5012667;28;47684;-90
2023/03/07 10:02:35;;;;;;;;;14.00;10.00;;;;;10.85;51.00;63708.44;5002093;28;45461;-92
2023/03/07 10:05:09;;;;;;;;;14.67;11.00;;;;;11.17;50.78;63794.16;4993379;28;45568;-87
2023/03/07 10:07:35;;;;;;;;;10.00;10.00;;;;;10.88;50.43;63825.91;5018824;28;45751;-96
2023/03/07 10:10:23;;;;;;;;;8.67;8.00;;;;;9.39;49.99;63695.44;5026047;28;46521;-94
2023/03/07 10:13:07;;;;;;;;;15.67;12.67;;;;;9.82;49.90;63451.97;5001122;28;45408;-96
2023/03/07 10:16:42;;;;;;;;;13.00;12.00;;;;;12.00;49.56;63595.63;5045847;23;45499;-93
2023/03/07 10:19:21;;;;;;;;;9.00;6.67;;;;;12.05;49.31;63730.28;4898294;28;45557;-91
2023/03/07 10:22:08;;;;;;;;;13.67;12.67;;;;;12.00;49.10;64000.56;4913600;28;47166;-96
2023/03/07 10:24:47;;;;;;;;;11.67;11.67;;;;;11.49;48.75;64095.13;4912935;28;45514;-94
2023/03/07 10:29:48;;;;;;;;;14.67;12.33;;;;;11.77;48.88;64393.03;4969832;28;46981;-88
2023/03/07 10:32:36;;;;;;;;;12.33;10.00;;;;;11.47;48.98;64473.75;4952316;28;47289;-89
2023/03/07 10:35:10;;;;;;;;;12.33;11.00;;;;;11.69;49.12;64466.66;4976668;28;46549;-92
2023/03/07 10:37:43;;;;;;;;;11.33;10.67;;;;;11.64;48.77;64548.38;4971114;28;45409;-92
2023/03/07 10:40:21;;;;;;;;;12.67;12.00;;;;;11.62;49.43;64535.56;4962898;28;45600;-90
2023/03/07 10:42:46;;;;;;;;;10.00;10.00;;;;;11.17;48.96;64663.88;4951700;28;47715;-88
2023/03/07 10:45:15;;;;;;;;;2.33;2.33;;;;;11.55;49.42;64620.28;4953851;28;46633;-86
2023/03/07 10:47:42;;;;;;;;;12.00;11.67;;;;;11.59;49.20;64561.84;4949995;28;45563;-90
2023/03/07 10:50:22;;;;;;;;;12.00;12.00;;;;;11.62;49.14;64673.69;4959156;28;45614;-88
2023/03/07 10:52:57;;;;;;;;;12.33;10.67;;;;;11.67;49.05;64609.94;4965260;28;48295;-88
2023/03/07 10:55:28;;;;;;;;;8.00;8.00;;;;;11.77;48.85;64554.47;4957100;28;45507;-87
2023/03/07 10:57:53;;;;;;;;;12.33;10.00;;;;;11.33;48.33;64511.50;4966978;28;45641;-89
2023/03/07 11:00:19;;;;;;;;;10.00;10.00;;;;;11.57;47.89;64459.06;4956988;28;45719;-87
2023/03/07 11:02:45;;;;;;;;;10.00;10.00;;;;;11.72;47.52;64588.53;4973396;28;47997;-89
2023/03/07 11:05:23;;;;;;;;;12.00;10.67;;;;;12.52;47.58;64462.13;4957294;28;45390;-88
2023/03/07 11:07:48;;;;;;;;;13.00;9.67;;;;;12.60;46.96;64589.78;4977240;28;45402;-89
2023/03/07 11:10:31;;;;;;;;;13.00;11.67;;;;;12.40;46.34;64533.47;4986020;28;45444;-89
2023/03/07 11:12:56;;;;;;;;;13.00;10.00;;;;;13.01;46.22;64711.59;4958088;28;48054;-88
2023/03/07 11:15:23;;;;;;;;;10.00;9.00;;;;;12.30;45.71;64795.63;4980629;28;45495;-89
2023/03/07 11:17:50;;;;;;;;;10.67;9.33;;;;;13.13;45.77;64870.38;4978776;28;45424;-88
2023/03/07 11:20:26;;;;;;;;;8.33;8.00;;;;;13.27;45.35;64942.47;4964701;28;45584;-88
2023/03/07 11:23:10;;;;;;;;;13.67;11.33;;;;;13.45;45.57;64900.59;4978939;28;45699;-89
2023/03/07 11:25:36;;;;;;;;;10.67;8.00;;;;;13.27;44.57;65106.97;4953110;28;45503;-91
2023/03/07 11:28:01;;;;;;;;;10.33;8.00;;;;;13.27;44.50;65191.25;4955149;28;46044;-89
2023/03/07 11:30:34;;;;;;;;;7.67;7.33;;;;;13.21;44.09;65352.16;4952857;28;45918;-88
2023/03/07 11:33:24;;;;;;;;;10.00;10.00;;;;;13.91;43.89;65341.72;4956704;28;47361;-88
2023/03/07 11:35:49;;;;;;;;;9.00;8.67;;;;;14.06;43.31;65475.63;4952406;28;46763;-88
2023/03/07 11:38:47;;;;;;;;;8.00;7.00;;;;;14.14;43.24;65556.47;4953080;28;45574;-87
2023/03/07 11:41:31;;;;;;;;;9.00;8.67;;;;;14.22;42.96;65630.84;4946777;28;45495;-88
2023/03/07 11:44:27;;;;;;;;;7.00;6.33;;;;;14.29;42.50;65769.63;4948703;28;47234;-88
2023/03/07 11:47:22;;;;;;;;;13.00;10.33;;;;;14.19;42.40;66039.31;4974065;28;45461;-93
2023/03/07 11:49:53;;;;;;;;;9.00;7.00;;;;;14.13;41.96;66179.75;4976542;28;45424;-92
2023/03/07 11:52:44;;;;;;;;;5.67;5.67;;;;;14.00;41.88;66268.47;4961283;28;45552;-91
2023/03/07 11:55:19;;;;;;;;;13.00;9.00;;;;;13.91;41.80;66426.06;4960282;28;47145;-92
2023/03/07 11:57:54;;;;;;;;;10.00;8.00;;;;;13.85;42.16;66453.66;4944166;28;45491;-91
2023/03/07 12:00:22;;;;;;;;;9.00;8.00;;;;;;;;4960548;28;45485;-91
2023/03/07 12:03:06;;;;;;;;;11.00;8.33;;;;;13.18;41.59;66534.16;4957791;28;45746;-90
2023/03/07 12:05:39;;;;;;;;;9.33;8.33;;;;;13.63;41.63;66608.91;4965038;28;47237;-90
2023/03/07 12:08:34;;;;;;;;;7.00;7.00;;;;;13.71;41.67;66631.41;4959723;28;45889;-91
2023/03/07 12:11:10;;;;;;;;;5.67;5.67;;;;;13.75;41.84;66675.31;4963141;28;45658;-91
2023/03/07 12:13:57;;;;;;;;;13.00;7.00;;;;;13.64;41.91;66695.59;4957079;28;45755;-92
2023/03/07 12:16:58;;;;;;;;;8.33;8.33;;;;;13.08;41.66;66642.59;4970879;28;47142;-92
2023/03/07 12:19:47;;;;;;;;;11.33;7.33;;;;;13.79;41.94;66679.94;4956038;28;45410;-92
2023/03/07 12:22:27;;;;;;;;;8.00;6.67;;;;;14.06;41.32;66636.75;4971895;28;45510;-92
2023/03/07 12:25:08;;;;;;;;;9.00;9.00;;;;;14.19;41.65;66614.00;4960024;28;45446;-91
2023/03/07 12:27:37;;;;;;;;;10.67;7.33;;;;;14.15;41.03;66737.50;4973308;28;45366;-91
2023/03/07 12:30:39;;;;;;;;;12.67;10.00;;;;;14.03;40.82;66845.88;4953077;28;45464;-91
2023/03/07 12:33:06;;;;;;;;;8.00;8.00;;;;;14.17;41.08;66900.81;4972597;28;45542;-91
2023/03/07 12:35:44;;;;;;;;;7.67;5.33;;;;;14.25;40.87;66793.13;4957483;28;45403;-93
2023/03/07 12:38:34;;;;;;;;;8.67;5.33;;;;;14.49;40.79;66746.47;4967580;28;45499;-91
2023/03/07 12:41:10;;;;;;;;;7.33;7.33;;;;;14.84;40.04;66694.75;4973869;28;45591;-92
2023/03/07 12:43:44;;;;;;;;;8.00;7.00;;;;;15.46;38.90;66732.75;4954940;28;45587;-91
2023/03/07 12:46:22;;;;;;;;;8.33;7.00;;;;;15.25;38.86;66866.16;4962807;28;45571;-91
2023/03/07 12:48:55;;;;;;;;;6.33;6.33;;;;;15.29;38.35;67023.16;4972309;28;45658;-91
2023/03/07 12:51:39;;;;;;;;;6.00;4.00;;;;;15.14;38.35;67035.00;4982901;28;45689;-91
2023/03/07 12:54:29;;;;;;;;;6.67;5.00;;;;;15.56;38.31;67195.09;4954938;28;45571;-90
2023/03/07 12:57:16;;;;;;;;;5.33;5.33;;;;;15.49;38.74;67258.31;4942244;28;45564;-90
2023/03/07 12:59:42;;;;;;;;;5.67;5.67;;;;;14.72;38.52;67248.72;4956160;28;48608;-90
2023/03/07 13:02:22;;;;;;;;;7.00;5.00;;;;;15.11;38.37;67327.03;4962653;28;45776;-90
2023/03/07 13:04:47;;;;;;;;;5.00;5.00;;;;;14.34;38.64;67314.06;4960182;28;45418;-89
2023/03/07 13:07:33;;;;;;;;;4.67;4.33;;;;;14.34;38.60;67359.25;4976218;28;45515;-89
2023/03/07 13:10:03;;;;;;;;;4.67;4.67;;;;;14.24;38.69;67510.34;4969096;28;47125;-90
2023/03/07 13:12:34;;;;;;;;;7.33;5.33;;;;;14.00;39.04;67373.91;4968524;28;45534;-89
2023/03/07 13:15:02;;;;;;;;;7.33;4.33;;;;;14.46;39.47;67423.78;4969273;28;45369;-88
2023/03/07 13:17:28;;;;;;;;;8.00;5.33;;;;;14.44;39.41;67474.66;4967047;28;45560;-91
2023/03/07 13:19:58;;;;;;;;;6.67;5.00;;;;;13.82;39.57;67416.66;4971888;28;48258;-91
2023/03/07 13:22:23;;;;;;;;;5.00;5.00;;;;;14.36;40.00;67457.91;4953334;28;45549;-87
2023/03/07 13:24:53;;;;;;;;;6.67;4.33;;;;;12.63;40.11;67358.63;4970928;28;45487;-87
2023/03/07 13:27:19;;;;;;;;;10.33;7.00;;;;;14.10;40.13;67491.31;4963718;28;45328;-87
2023/03/07 13:30:03;;;;;;;;;7.00;7.00;;;;;14.02;40.27;67471.91;4974087;28;45520;-87
2023/03/07 13:32:47;;;;;;;;;10.33;7.00;;;;;13.94;40.58;67433.31;4960534;28;45523;-90
2023/03/07 13:35:32;;;;;;;;;8.33;7.00;;;;;13.49;40.76;67390.47;4961264;28;45519;-94
2023/03/07 13:38:40;;;;;;;;;8.00;8.00;;;;;13.71;40.70;67450.09;4957918;28;45524;-94
2023/03/07 13:41:08;;;;;;;;;8.67;6.67;;;;;13.65;40.63;67487.66;4964313;28;47115;-95
2023/03/07 13:43:55;;;;;;;;;4.67;4.67;;;;;12.97;41.09;67428.44;4964322;28;45393;-95
2023/03/07 13:46:23;;;;;;;;;6.33;5.33;;;;;13.49;41.11;67451.53;4964590;28;45338;-94
2023/03/07 13:48:49;;;;;;;;;5.67;5.67;;;;;13.42;41.09;67493.81;4965205;28;45647;-92
2023/03/07 13:51:14;;;;;;;;;5.67;5.67;;;;;13.40;41.40;67419.78;4976844;28;48060;-93
2023/03/07 13:53:53;;;;;;;;;8.33;6.67;;;;;13.35;41.59;67419.25;4963963;28;45369;-94
2023/03/07 13:56:26;;;;;;;;;12.67;7.00;;;;;13.32;41.14;67484.16;4980821;28;45508;-94
2023/03/07 13:59:13;;;;;;;;;5.67;5.67;;;;;13.29;41.50;67436.09;4965486;28;45283;-88
2023/03/07 14:01:39;;;;;;;;;7.33;6.67;;;;;13.30;41.52;67421.38;4971701;28;47290;-89
2023/03/07 14:04:40;;;;;;;;;8.33;7.33;;;;;13.32;41.86;67423.09;4962765;28;46680;-88
2023/03/07 14:07:24;;;;;;;;;7.33;7.33;;;;;13.30;41.34;67445.84;4967564;28;45317;-91
2023/03/07 14:09:54;;;;;;;;;8.00;6.33;;;;;13.25;41.36;67460.59;4980451;28;45536;-93
2023/03/07 14:12:25;;;;;;;;;8.00;6.33;;;;;13.15;41.32;67462.75;4972672;28;48329;-94
2023/03/07 14:14:58;;;;;;;;;8.33;7.00;;;;;13.16;41.47;67424.13;4980458;28;45858;-93
2023/03/07 14:17:23;;;;;;;;;6.67;4.67;;;;;13.13;41.54;67455.13;4980919;28;45826;-94
2023/03/07 14:19:55;;;;;;;;;7.00;6.67;;;;;13.07;41.55;67483.19;4978353;28;45772;-94
2023/03/07 14:22:51;;;;;;;;;8.00;5.67;;;;;13.06;42.12;67478.78;4966967;28;47149;-93
2023/03/07 14:25:23;;;;;;;;;7.33;7.33;;;;;12.95;41.80;67442.63;4964551;28;45390;-95
2023/03/07 14:28:01;;;;;;;;;8.33;6.67;;;;;13.04;41.76;67474.38;4966049;28;45301;-94
2023/03/07 14:30:30;;;;;;;;;8.67;8.00;;;;;13.06;41.93;67431.59;4961324;28;45520;-93
2023/03/07 14:32:56;;;;;;;;;4.33;4.00;;;;;12.87;42.10;67603.03;4976623;28;47249;-94
2023/03/07 14:35:42;;;;;;;;;7.67;6.00;;;;;12.95;42.20;67402.81;4976710;28;46258;-94
2023/03/07 14:38:23;;;;;;;;;7.33;7.33;;;;;12.66;42.48;67383.34;4954044;28;45303;-94
2023/03/07 14:41:24;;;;;;;;;11.00;9.33;;;;;12.90;42.09;67444.72;4955407;28;45376;-94
2023/03/07 14:44:40;;;;;;;;;8.33;6.67;;;;;12.83;41.90;67447.75;4898726;29;47508;-93
2023/03/07 14:47:44;;;;;;;;;11.00;8.67;;;;;13.18;42.10;67433.84;4822574;29;45899;-92
2023/03/07 14:50:17;;;;;;;;;6.67;5.67;;;;;13.28;42.10;67371.81;4810769;29;45308;-93
2023/03/07 14:52:44;;;;;;;;;7.00;7.00;;;;;12.76;41.92;67344.06;4811696;29;45926;-93
2023/03/07 14:55:21;;;;;;;;;7.67;7.67;;;;;13.09;41.76;67390.00;4825526;29;48574;-94
2023/03/07 14:57:51;;;;;;;;;7.33;6.33;;;;;13.21;41.85;67408.16;4811949;29;45434;-92
2023/03/07 15:00:21;;;;;;;;;7.67;7.00;;;;;13.22;42.15;67422.59;4811615;29;45327;-94
2023/03/07 15:02:50;;;;;;;;;5.67;5.67;;;;;13.09;41.99;67432.47;4824292;29;45604;-94
2023/03/07 15:05:20;;;;;;;;;11.33;6.67;;;;;13.22;41.97;67427.91;4810269;29;48172;-94
2023/03/07 15:07:45;;;;;;;;;8.33;8.33;;;;;12.64;41.77;67415.50;4807239;29;45273;-93
2023/03/07 15:10:39;;;;;;;;;8.33;8.33;;;;;13.09;41.85;67437.75;4811713;29;45669;-94
2023/03/07 15:13:12;;;;;;;;;7.67;7.67;;;;;12.22;42.33;67470.91;4804829;29;45672;-95
2023/03/07 15:15:46;;;;;;;;;6.67;6.67;;;;;13.05;42.03;67413.94;4804168;29;47487;-94
2023/03/07 15:18:21;;;;;;;;;8.00;7.00;;;;;13.01;42.29;67446.97;4820988;29;45457;-94
2023/03/07 15:20:48;;;;;;;;;7.67;7.67;;;;;12.74;42.89;67381.50;4835581;29;46619;-93
2023/03/07 15:23:28;;;;;;;;;7.67;6.00;;;;;12.98;42.39;67448.78;4941680;28;45483;-96
2023/03/07 15:26:19;;;;;;;;;7.00;6.67;;;;;12.86;42.42;67429.44;4953946;28;48320;-90
2023/03/07 15:28:46;;;;;;;;;7.33;5.67;;;;;12.99;42.14;67406.91;4953068;28;46076;-93
2023/03/07 15:31:14;;;;;;;;;6.00;6.00;;;;;12.93;42.67;67413.75;4957004;28;45443;-96
2023/03/07 15:33:40;;;;;;;;;8.67;8.67;;;;;12.59;42.15;67329.50;4975083;28;45693;-93
2023/03/07 15:36:05;;;;;;;;;12.00;8.00;;;;;13.00;42.00;67424.00;4976148;28;48652;-94
2023/03/07 15:38:32;;;;;;;;;6.67;6.33;;;;;12.81;42.53;67405.59;4970421;28;46480;-94
2023/03/07 15:40:58;;;;;;;;;12.67;8.33;;;;;12.17;42.02;67337.25;4963871;28;45448;-94
2023/03/07 15:43:27;;;;;;;;;9.67;8.33;;;;;12.91;42.33;67458.56;4975174;28;45532;-94
2023/03/07 15:46:14;;;;;;;;;10.67;7.33;;;;;12.86;42.16;67422.06;4975643;28;47311;-93
2023/03/07 15:48:50;;;;;;;;;8.00;8.00;;;;;12.84;42.44;67459.50;4944289;28;45480;-93
2023/03/07 15:51:19;;;;;;;;;9.67;7.33;;;;;12.77;42.28;67459.28;4954664;28;45420;-93
2023/03/07 15:53:55;;;;;;;;;10.00;10.00;;;;;12.73;42.26;67451.94;4971447;28;45349;-93
2023/03/07 15:56:36;;;;;;;;;10.67;8.00;;;;;12.71;42.28;67472.88;4957795;28;47985;-92
2023/03/07 15:59:30;;;;;;;;;9.33;7.67;;;;;12.70;42.68;67421.34;4955743;28;45569;-93
2023/03/07 16:01:55;;;;;;;;;9.33;9.33;;;;;12.37;42.62;67513.81;4948016;28;45412;-94
2023/03/07 16:04:34;;;;;;;;;9.33;9.00;;;;;12.51;42.78;67591.19;4959636;28;45449;-93
2023/03/07 16:07:00;;;;;;;;;12.67;9.33;;;;;12.51;42.02;67405.59;4975305;28;47559;-93
2023/03/07 16:09:25;;;;;;;;;9.33;8.33;;;;;12.38;42.41;67562.69;4955686;28;45479;-92
2023/03/07 16:11:51;;;;;;;;;10.33;8.00;;;;;12.56;42.42;67440.59;4962476;28;45346;-94
2023/03/07 16:14:32;;;;;;;;;10.33;7.00;;;;;12.56;42.88;67447.97;4974535;28;45491;-95
2023/03/07 16:17:16;;;;;;;;;9.33;9.33;;;;;11.96;42.57;67400.72;4970093;28;47442;-96
2023/03/07 16:19:41;;;;;;;;;12.00;9.00;;;;;12.33;42.51;67434.88;4955809;28;45501;-90
2023/03/07 16:22:18;;;;;;;;;8.33;7.33;;;;;11.66;42.53;67390.00;4956941;28;45475;-91
2023/03/07 16:24:44;;;;;;;;;8.00;6.33;;;;;12.38;43.20;67462.53;4944033;28;45494;-91
2023/03/07 16:27:15;;;;;;;;;10.00;9.00;;;;;11.72;42.63;67378.50;4962343;28;47624;-91
2023/03/07 16:29:41;;;;;;;;;8.67;8.00;;;;;12.10;42.59;67385.28;4954560;28;45398;-91
2023/03/07 16:32:11;;;;;;;;;10.00;9.33;;;;;12.28;42.44;67444.94;4957267;28;45530;-92
2023/03/07 16:34:36;;;;;;;;;8.00;7.67;;;;;12.40;42.97;67425.09;4942961;28;45328;-92
2023/03/07 16:37:02;;;;;;;;;7.00;5.00;;;;;11.92;42.81;67356.31;4948774;28;47396;-92
2023/03/07 16:39:27;;;;;;;;;7.00;7.00;;;;;11.96;42.37;67403.97;4953399;28;45821;-90
2023/03/07 16:41:53;;;;;;;;;11.67;8.00;;;;;11.50;42.66;67369.25;4952310;28;45555;-91
2023/03/07 16:44:20;;;;;;;;;10.00;9.00;;;;;12.50;42.73;67456.84;4959081;28;45527;-95
2023/03/07 16:46:54;;;;;;;;;9.00;7.67;;;;;11.61;42.83;67292.09;4971683;28;47357;-92
2023/03/07 16:49:20;;;;;;;;;7.00;7.00;;;;;12.30;42.88;67371.00;4956259;28;45549;-92
2023/03/07 16:51:45;;;;;;;;;9.00;8.00;;;;;12.33;42.76;67469.34;4957605;28;45428;-93
2023/03/07 16:54:11;;;;;;;;;9.67;9.67;;;;;12.29;42.79;67414.31;4956132;28;45591;-92
2023/03/07 16:56:40;;;;;;;;;10.33;7.00;;;;;12.48;43.17;67438.59;4957260;28;47055;-93
2023/03/07 16:59:07;;;;;;;;;8.00;8.00;;;;;12.08;43.38;67483.66;4955707;28;45472;-92
2023/03/07 17:01:33;;;;;;;;;8.00;6.00;;;;;12.43;43.20;67441.28;4956409;28;45416;-93
2023/03/07 17:03:58;;;;;;;;;9.67;9.67;;;;;12.41;43.21;67439.53;4959413;28;45522;-94
2023/03/07 17:06:24;;;;;;;;;9.67;7.00;;;;;12.40;42.94;67461.63;4953223;28;47583;-88
2023/03/07 17:08:51;;;;;;;;;8.67;8.33;;;;;11.87;43.02;67419.91;4946859;28;45491;-92
2023/03/07 17:11:20;;;;;;;;;7.67;4.00;;;;;11.89;43.08;67361.31;4976471;28;45425;-95
2023/03/07 17:13:48;;;;;;;;;9.00;8.00;;;;;12.38;43.12;67425.41;4951558;28;45353;-92
2023/03/07 17:16:15;;;;;;;;;9.33;9.33;;;;;11.42;43.23;67373.69;4949327;28;47183;-92
2023/03/07 17:18:41;;;;;;;;;10.33;10.33;;;;;12.42;43.34;67390.34;4956530;28;46052;-93
2023/03/07 17:21:11;;;;;;;;;13.67;9.67;;;;;12.02;43.10;67391.84;4954230;28;45477;-94
2023/03/07 17:23:37;;;;;;;;;11.67;9.67;;;;;12.06;43.34;67425.06;4953980;28;45524;-96
2023/03/07 17:26:02;;;;;;;;;8.33;5.00;;;;;12.09;43.01;67378.25;4989613;28;48381;-96
2023/03/07 17:28:28;;;;;;;;;9.33;8.33;;;;;12.12;43.59;67377.03;4973784;28;45501;-95
2023/03/07 17:30:53;;;;;;;;;9.67;9.67;;;;;12.10;43.32;67536.31;4958282;28;45612;-96
2023/03/07 17:33:18;;;;;;;;;11.33;11.33;;;;;12.16;43.47;67437.38;4957349;28;45350;-96
2023/03/07 17:35:44;;;;;;;;;9.33;9.33;;;;;12.30;43.39;67442.00;4958655;28;47386;-96
2023/03/07 17:38:09;;;;;;;;;13.00;11.00;;;;;12.18;43.73;67437.06;4953517;28;46598;-96
2023/03/07 17:40:34;;;;;;;;;12.33;10.00;;;;;12.26;43.47;67453.78;4951281;28;45332;-89
2023/03/07 17:43:00;;;;;;;;;10.67;9.00;;;;;12.24;43.91;67401.09;4954432;28;44786;-94
2023/03/07 17:45:25;;;;;;;;;9.33;8.00;;;;;12.25;43.75;67371.03;4964966;28;47271;-95
2023/03/07 17:47:52;;;;;;;;;8.67;8.33;;;;;12.10;43.50;67366.16;4962402;28;45578;-96
2023/03/07 17:50:22;;;;;;;;;10.00;9.67;;;;;12.24;43.46;67399.03;4954964;28;45619;-90
2023/03/07 17:52:49;;;;;;;;;8.67;8.67;;;;;11.97;43.93;67388.66;4975575;28;45425;-91
2023/03/07 17:55:15;;;;;;;;;12.33;10.00;;;;;11.81;43.48;67346.66;4949233;28;47331;-90
2023/03/07 17:57:40;;;;;;;;;11.00;11.00;;;;;12.09;43.77;67437.13;4957000;28;45588;-90
2023/03/07 18:00:11;;;;;;;;;12.33;9.67;;;;;11.45;43.57;67355.44;4967218;28;45412;-92
2023/03/07 18:02:37;;;;;;;;;14.33;11.33;;;;;11.72;43.59;67355.25;4976204;28;45864;-91
2023/03/07 18:05:02;;;;;;;;;12.67;12.67;;;;;12.07;43.95;67439.50;4955361;28;47543;-85
2023/03/07 18:07:28;;;;;;;;;16.00;11.00;;;;;11.44;43.92;67325.75;4953762;28;45520;-89
2023/03/07 18:09:53;;;;;;;;;10.00;8.33;;;;;11.40;44.05;67437.53;4946731;28;47053;-86
2023/03/07 18:12:18;;;;;;;;;15.33;12.00;;;;;11.96;44.08;67401.31;4950738;28;45598;-85
2023/03/07 18:14:44;;;;;;;;;15.00;14.00;;;;;11.40;44.06;67358.13;4953498;28;45821;-85
2023/03/07 18:17:10;;;;;;;;;15.00;14.00;;;;;11.72;44.19;67344.66;4963099;28;45555;-85
2023/03/07 18:19:37;;;;;;;;;11.00;10.00;;;;;11.62;44.23;67356.81;4959347;28;45522;-85
2023/03/07 18:22:02;;;;;;;;;14.33;11.67;;;;;11.30;44.67;67315.25;4950057;28;45476;-89